Terminal Aerodrome Forecast
Issued by NWS

Home | Current Version | Previous Version | Text Only | Print | Product List | Glossary On
Versions: 1 2 3 4 5 6 7 8 9 10 11 12 13 14 15 16 17 18 19 20 21 22 23
084
FTUS45 KBYZ 241732
TAFLVM
TAF
KLVM 241732Z 2418/2518 36011KT P6SM BKN050
     FM242200 04012G20KT P6SM VCTS SCT050 BKN080CB
     FM250200 09011KT P6SM SCT050
     FM251200 25010KT P6SM SCT100=

USA.gov is the U.S. government's official web portal to all federal, state and local government web resources and services.